sensor_id;sensor_type;location;lat;lon;timestamp;P1;durP1;ratioP1;P2;durP2;ratioP2
71838;SDS011;59687;37.520;15.068;2022-11-20T00:01:31;7.35;;;2.95;;
71838;SDS011;59687;37.520;15.068;2022-11-20T00:03:58;10.45;;;3.45;;
71838;SDS011;59687;37.520;15.068;2022-11-20T00:06:27;11.50;;;3.47;;
71838;SDS011;59687;37.520;15.068;2022-11-20T00:08:56;10.15;;;3.40;;
71838;SDS011;59687;37.520;15.068;2022-11-20T00:11:28;8.43;;;2.83;;
71838;SDS011;59687;37.520;15.068;2022-11-20T00:13:57;9.10;;;3.47;;
71838;SDS011;59687;37.520;15.068;2022-11-20T00:16:27;11.27;;;3.50;;
71838;SDS011;59687;37.520;15.068;2022-11-20T00:18:57;9.45;;;2.75;;
71838;SDS011;59687;37.520;15.068;2022-11-20T00:21:25;11.02;;;3.60;;
71838;SDS011;59687;37.520;15.068;2022-11-20T00:23:57;8.57;;;2.97;;
71838;SDS011;59687;37.520;15.068;2022-11-20T00:26:27;8.82;;;2.95;;
71838;SDS011;59687;37.520;15.068;2022-11-20T00:29:00;10.05;;;3.13;;
71838;SDS011;59687;37.520;15.068;2022-11-20T00:31:27;9.40;;;3.38;;
71838;SDS011;59687;37.520;15.068;2022-11-20T00:33:57;10.38;;;3.25;;
71838;SDS011;59687;37.520;15.068;2022-11-20T00:36:25;11.40;;;3.57;;
71838;SDS011;59687;37.520;15.068;2022-11-20T00:38:55;12.13;;;3.88;;
71838;SDS011;59687;37.520;15.068;2022-11-20T00:41:24;14.70;;;3.90;;
71838;SDS011;59687;37.520;15.068;2022-11-20T00:43:53;14.63;;;3.45;;
71838;SDS011;59687;37.520;15.068;2022-11-20T00:46:24;12.65;;;3.63;;
71838;SDS011;59687;37.520;15.068;2022-11-20T00:48:53;9.77;;;3.33;;
71838;SDS011;59687;37.520;15.068;2022-11-20T00:51:22;12.05;;;3.67;;
71838;SDS011;59687;37.520;15.068;2022-11-20T00:53:51;13.65;;;3.42;;
71838;SDS011;59687;37.520;15.068;2022-11-20T00:56:19;11.05;;;4.35;;
71838;SDS011;59687;37.520;15.068;2022-11-20T00:58:47;12.55;;;4.60;;
71838;SDS011;59687;37.520;15.068;2022-11-20T01:01:22;12.50;;;4.00;;
71838;SDS011;59687;37.520;15.068;2022-11-20T01:03:53;13.05;;;4.28;;
71838;SDS011;59687;37.520;15.068;2022-11-20T01:06:22;14.65;;;4.18;;
71838;SDS011;59687;37.520;15.068;2022-11-20T01:09:00;10.65;;;4.57;;
71838;SDS011;59687;37.520;15.068;2022-11-20T01:11:32;10.65;;;5.50;;
71838;SDS011;59687;37.520;15.068;2022-11-20T01:14:05;11.03;;;4.57;;
71838;SDS011;59687;37.520;15.068;2022-11-20T01:16:42;11.50;;;5.45;;
71838;SDS011;59687;37.520;15.068;2022-11-20T01:19:19;11.68;;;4.88;;
71838;SDS011;59687;37.520;15.068;2022-11-20T01:21:49;9.88;;;4.10;;
71838;SDS011;59687;37.520;15.068;2022-11-20T01:24:20;11.48;;;4.03;;
71838;SDS011;59687;37.520;15.068;2022-11-20T01:26:49;9.87;;;3.00;;
71838;SDS011;59687;37.520;15.068;2022-11-20T01:29:19;8.73;;;3.05;;
71838;SDS011;59687;37.520;15.068;2022-11-20T01:31:50;11.32;;;2.80;;
71838;SDS011;59687;37.520;15.068;2022-11-20T01:34:19;10.40;;;2.83;;
71838;SDS011;59687;37.520;15.068;2022-11-20T01:36:47;10.13;;;2.45;;
71838;SDS011;59687;37.520;15.068;2022-11-20T01:39:15;8.50;;;2.77;;
71838;SDS011;59687;37.520;15.068;2022-11-20T01:41:45;9.93;;;2.42;;
71838;SDS011;59687;37.520;15.068;2022-11-20T01:47:56;8.32;;;3.33;;
71838;SDS011;59687;37.520;15.068;2022-11-20T01:50:24;10.95;;;2.80;;
71838;SDS011;59687;37.520;15.068;2022-11-20T01:52:56;9.07;;;3.50;;
71838;SDS011;59687;37.520;15.068;2022-11-20T01:55:33;7.93;;;3.63;;
71838;SDS011;59687;37.520;15.068;2022-11-20T01:58:03;7.72;;;2.85;;
71838;SDS011;59687;37.520;15.068;2022-11-20T02:00:31;13.63;;;3.78;;
71838;SDS011;59687;37.520;15.068;2022-11-20T02:03:03;11.27;;;4.03;;
71838;SDS011;59687;37.520;15.068;2022-11-20T02:05:44;6.90;;;3.50;;
71838;SDS011;59687;37.520;15.068;2022-11-20T02:08:17;11.05;;;3.20;;
71838;SDS011;59687;37.520;15.068;2022-11-20T02:10:45;7.38;;;3.15;;
71838;SDS011;59687;37.520;15.068;2022-11-20T02:13:13;9.80;;;2.78;;
71838;SDS011;59687;37.520;15.068;2022-11-20T02:16:11;11.43;;;3.50;;
71838;SDS011;59687;37.520;15.068;2022-11-20T02:19:00;11.70;;;3.90;;
71838;SDS011;59687;37.520;15.068;2022-11-20T02:21:36;10.65;;;3.58;;
71838;SDS011;59687;37.520;15.068;2022-11-20T02:24:29;6.75;;;2.90;;
71838;SDS011;59687;37.520;15.068;2022-11-20T02:26:59;7.35;;;2.30;;
71838;SDS011;59687;37.520;15.068;2022-11-20T02:32:17;11.27;;;2.70;;
71838;SDS011;59687;37.520;15.068;2022-11-20T02:34:53;5.97;;;2.42;;
71838;SDS011;59687;37.520;15.068;2022-11-20T02:37:26;6.97;;;2.28;;
71838;SDS011;59687;37.520;15.068;2022-11-20T02:39:57;10.73;;;2.45;;
71838;SDS011;59687;37.520;15.068;2022-11-20T02:42:24;5.70;;;2.17;;
71838;SDS011;59687;37.520;15.068;2022-11-20T02:44:53;10.00;;;2.87;;
71838;SDS011;59687;37.520;15.068;2022-11-20T02:47:19;9.23;;;2.47;;
71838;SDS011;59687;37.520;15.068;2022-11-20T02:49:46;7.00;;;2.53;;
71838;SDS011;59687;37.520;15.068;2022-11-20T02:52:13;9.73;;;2.33;;
71838;SDS011;59687;37.520;15.068;2022-11-20T02:54:40;8.93;;;2.83;;
71838;SDS011;59687;37.520;15.068;2022-11-20T02:57:10;8.33;;;2.53;;
71838;SDS011;59687;37.520;15.068;2022-11-20T02:59:38;7.45;;;2.70;;
71838;SDS011;59687;37.520;15.068;2022-11-20T03:02:05;9.93;;;3.10;;
71838;SDS011;59687;37.520;15.068;2022-11-20T03:04:33;11.23;;;3.08;;
71838;SDS011;59687;37.520;15.068;2022-11-20T03:07:00;13.82;;;2.90;;
71838;SDS011;59687;37.520;15.068;2022-11-20T03:09:27;10.27;;;2.93;;
71838;SDS011;59687;37.520;15.068;2022-11-20T03:11:55;11.50;;;2.58;;
71838;SDS011;59687;37.520;15.068;2022-11-20T03:14:21;10.15;;;2.63;;
71838;SDS011;59687;37.520;15.068;2022-11-20T03:16:49;10.68;;;2.80;;
71838;SDS011;59687;37.520;15.068;2022-11-20T03:19:17;10.93;;;3.20;;
71838;SDS011;59687;37.520;15.068;2022-11-20T03:21:44;12.00;;;3.20;;
71838;SDS011;59687;37.520;15.068;2022-11-20T03:24:12;11.57;;;3.50;;
71838;SDS011;59687;37.520;15.068;2022-11-20T03:26:43;12.68;;;3.47;;
71838;SDS011;59687;37.520;15.068;2022-11-20T03:29:10;12.60;;;3.20;;
71838;SDS011;59687;37.520;15.068;2022-11-20T03:31:38;9.73;;;4.00;;
71838;SDS011;59687;37.520;15.068;2022-11-20T03:34:07;9.53;;;4.70;;
71838;SDS011;59687;37.520;15.068;2022-11-20T03:36:37;13.75;;;3.47;;
71838;SDS011;59687;37.520;15.068;2022-11-20T03:39:06;9.20;;;2.90;;
71838;SDS011;59687;37.520;15.068;2022-11-20T03:41:38;11.48;;;3.13;;
71838;SDS011;59687;37.520;15.068;2022-11-20T03:44:07;12.32;;;3.08;;
71838;SDS011;59687;37.520;15.068;2022-11-20T03:46:37;9.30;;;3.13;;
71838;SDS011;59687;37.520;15.068;2022-11-20T03:49:04;10.48;;;3.60;;
71838;SDS011;59687;37.520;15.068;2022-11-20T03:51:34;12.52;;;4.13;;
71838;SDS011;59687;37.520;15.068;2022-11-20T03:54:03;11.05;;;4.80;;
71838;SDS011;59687;37.520;15.068;2022-11-20T03:56:36;8.07;;;4.75;;
71838;SDS011;59687;37.520;15.068;2022-11-20T03:59:09;11.67;;;4.80;;
71838;SDS011;59687;37.520;15.068;2022-11-20T04:01:36;8.82;;;3.53;;
71838;SDS011;59687;37.520;15.068;2022-11-20T04:04:08;8.93;;;3.30;;
71838;SDS011;59687;37.520;15.068;2022-11-20T04:06:37;9.63;;;3.00;;
71838;SDS011;59687;37.520;15.068;2022-11-20T04:09:06;11.98;;;4.47;;
71838;SDS011;59687;37.520;15.068;2022-11-20T04:11:34;8.83;;;3.90;;
71838;SDS011;59687;37.520;15.068;2022-11-20T04:14:04;15.02;;;10.45;;
71838;SDS011;59687;37.520;15.068;2022-11-20T04:16:33;16.20;;;9.80;;
71838;SDS011;59687;37.520;15.068;2022-11-20T04:19:04;11.27;;;5.75;;
71838;SDS011;59687;37.520;15.068;2022-11-20T04:21:34;11.68;;;4.25;;
71838;SDS011;59687;37.520;15.068;2022-11-20T04:24:04;11.20;;;3.23;;
71838;SDS011;59687;37.520;15.068;2022-11-20T04:26:35;11.13;;;2.70;;
71838;SDS011;59687;37.520;15.068;2022-11-20T04:29:02;10.77;;;3.45;;
71838;SDS011;59687;37.520;15.068;2022-11-20T04:31:31;12.13;;;3.10;;
71838;SDS011;59687;37.520;15.068;2022-11-20T04:34:00;6.55;;;2.90;;
71838;SDS011;59687;37.520;15.068;2022-11-20T04:36:31;9.00;;;3.13;;
71838;SDS011;59687;37.520;15.068;2022-11-20T04:39:00;10.10;;;4.20;;
71838;SDS011;59687;37.520;15.068;2022-11-20T04:41:30;12.25;;;3.38;;
71838;SDS011;59687;37.520;15.068;2022-11-20T04:44:00;10.25;;;3.05;;
71838;SDS011;59687;37.520;15.068;2022-11-20T04:46:30;11.00;;;3.13;;
71838;SDS011;59687;37.520;15.068;2022-11-20T04:49:03;10.83;;;3.17;;
71838;SDS011;59687;37.520;15.068;2022-11-20T04:51:31;10.10;;;3.40;;
71838;SDS011;59687;37.520;15.068;2022-11-20T04:54:00;12.13;;;3.00;;
71838;SDS011;59687;37.520;15.068;2022-11-20T04:56:28;11.32;;;3.35;;
71838;SDS011;59687;37.520;15.068;2022-11-20T04:58:59;9.18;;;2.72;;
71838;SDS011;59687;37.520;15.068;2022-11-20T05:01:27;8.27;;;2.80;;
71838;SDS011;59687;37.520;15.068;2022-11-20T05:03:57;6.35;;;2.10;;
71838;SDS011;59687;37.520;15.068;2022-11-20T05:06:25;8.10;;;2.92;;
71838;SDS011;59687;37.520;15.068;2022-11-20T05:08:52;10.55;;;2.45;;
71838;SDS011;59687;37.520;15.068;2022-11-20T05:11:20;8.98;;;3.10;;
71838;SDS011;59687;37.520;15.068;2022-11-20T05:13:48;6.50;;;2.33;;
71838;SDS011;59687;37.520;15.068;2022-11-20T05:16:19;7.45;;;2.83;;
71838;SDS011;59687;37.520;15.068;2022-11-20T05:18:51;7.65;;;2.63;;
71838;SDS011;59687;37.520;15.068;2022-11-20T05:21:23;10.60;;;3.03;;
71838;SDS011;59687;37.520;15.068;2022-11-20T05:23:51;7.28;;;2.65;;
71838;SDS011;59687;37.520;15.068;2022-11-20T05:26:20;11.40;;;3.93;;
71838;SDS011;59687;37.520;15.068;2022-11-20T05:28:50;11.43;;;4.95;;
71838;SDS011;59687;37.520;15.068;2022-11-20T05:31:19;12.50;;;6.18;;
71838;SDS011;59687;37.520;15.068;2022-11-20T05:33:50;9.98;;;6.78;;
71838;SDS011;59687;37.520;15.068;2022-11-20T05:36:17;9.13;;;5.38;;
71838;SDS011;59687;37.520;15.068;2022-11-20T05:38:44;12.60;;;4.33;;
71838;SDS011;59687;37.520;15.068;2022-11-20T05:41:15;8.55;;;2.75;;
71838;SDS011;59687;37.520;15.068;2022-11-20T05:43:48;6.13;;;2.88;;
71838;SDS011;59687;37.520;15.068;2022-11-20T05:46:19;9.80;;;4.28;;
71838;SDS011;59687;37.520;15.068;2022-11-20T05:48:50;6.88;;;3.70;;
71838;SDS011;59687;37.520;15.068;2022-11-20T05:51:19;9.07;;;4.10;;
71838;SDS011;59687;37.520;15.068;2022-11-20T05:53:46;8.15;;;3.40;;
71838;SDS011;59687;37.520;15.068;2022-11-20T05:56:18;6.25;;;2.38;;
71838;SDS011;59687;37.520;15.068;2022-11-20T05:58:46;7.07;;;2.08;;
71838;SDS011;59687;37.520;15.068;2022-11-20T06:01:16;6.18;;;1.80;;
71838;SDS011;59687;37.520;15.068;2022-11-20T06:03:53;10.50;;;1.87;;
71838;SDS011;59687;37.520;15.068;2022-11-20T06:06:31;9.07;;;3.85;;
71838;SDS011;59687;37.520;15.068;2022-11-20T06:08:57;6.88;;;1.90;;
71838;SDS011;59687;37.520;15.068;2022-11-20T06:11:25;6.28;;;2.00;;
71838;SDS011;59687;37.520;15.068;2022-11-20T06:13:53;6.80;;;1.70;;
71838;SDS011;59687;37.520;15.068;2022-11-20T06:16:20;4.70;;;1.60;;
71838;SDS011;59687;37.520;15.068;2022-11-20T06:18:48;7.53;;;1.85;;
71838;SDS011;59687;37.520;15.068;2022-11-20T06:21:17;6.97;;;1.70;;
71838;SDS011;59687;37.520;15.068;2022-11-20T06:23:46;6.55;;;1.60;;
71838;SDS011;59687;37.520;15.068;2022-11-20T06:26:17;7.22;;;1.58;;
71838;SDS011;59687;37.520;15.068;2022-11-20T06:28:50;9.53;;;2.57;;
71838;SDS011;59687;37.520;15.068;2022-11-20T06:31:19;6.25;;;2.05;;
71838;SDS011;59687;37.520;15.068;2022-11-20T06:33:50;8.48;;;1.80;;
71838;SDS011;59687;37.520;15.068;2022-11-20T06:36:22;10.50;;;2.22;;
71838;SDS011;59687;37.520;15.068;2022-11-20T06:38:49;7.55;;;2.00;;
71838;SDS011;59687;37.520;15.068;2022-11-20T06:41:19;6.17;;;2.10;;
71838;SDS011;59687;37.520;15.068;2022-11-20T06:43:47;9.90;;;2.30;;
71838;SDS011;59687;37.520;15.068;2022-11-20T06:46:16;7.90;;;2.70;;
71838;SDS011;59687;37.520;15.068;2022-11-20T06:48:47;9.27;;;2.15;;
71838;SDS011;59687;37.520;15.068;2022-11-20T06:51:17;9.13;;;2.58;;
71838;SDS011;59687;37.520;15.068;2022-11-20T06:53:44;10.50;;;2.33;;
71838;SDS011;59687;37.520;15.068;2022-11-20T06:56:11;6.32;;;1.80;;
71838;SDS011;59687;37.520;15.068;2022-11-20T06:58:40;5.05;;;1.70;;
71838;SDS011;59687;37.520;15.068;2022-11-20T07:01:09;9.50;;;2.10;;
71838;SDS011;59687;37.520;15.068;2022-11-20T07:03:38;7.28;;;2.10;;
71838;SDS011;59687;37.520;15.068;2022-11-20T07:06:07;9.43;;;2.50;;
71838;SDS011;59687;37.520;15.068;2022-11-20T07:08:35;10.50;;;3.10;;
71838;SDS011;59687;37.520;15.068;2022-11-20T07:11:04;11.13;;;4.07;;
71838;SDS011;59687;37.520;15.068;2022-11-20T07:13:33;14.10;;;4.43;;
71838;SDS011;59687;37.520;15.068;2022-11-20T07:16:02;10.35;;;3.90;;
71838;SDS011;59687;37.520;15.068;2022-11-20T07:18:30;12.37;;;3.80;;
71838;SDS011;59687;37.520;15.068;2022-11-20T07:21:02;10.80;;;4.82;;
71838;SDS011;59687;37.520;15.068;2022-11-20T07:23:30;10.82;;;4.32;;
71838;SDS011;59687;37.520;15.068;2022-11-20T07:25:58;8.80;;;4.97;;
71838;SDS011;59687;37.520;15.068;2022-11-20T07:28:30;10.98;;;3.80;;
71838;SDS011;59687;37.520;15.068;2022-11-20T07:30:56;12.53;;;3.80;;
71838;SDS011;59687;37.520;15.068;2022-11-20T07:33:24;11.43;;;3.78;;
71838;SDS011;59687;37.520;15.068;2022-11-20T07:35:51;8.55;;;3.65;;
71838;SDS011;59687;37.520;15.068;2022-11-20T07:38:19;9.73;;;3.85;;
71838;SDS011;59687;37.520;15.068;2022-11-20T07:40:47;13.68;;;3.83;;
71838;SDS011;59687;37.520;15.068;2022-11-20T07:43:14;9.77;;;4.00;;
71838;SDS011;59687;37.520;15.068;2022-11-20T07:45:42;9.60;;;3.60;;
71838;SDS011;59687;37.520;15.068;2022-11-20T07:48:10;8.73;;;3.40;;
71838;SDS011;59687;37.520;15.068;2022-11-20T07:50:37;11.93;;;3.25;;
71838;SDS011;59687;37.520;15.068;2022-11-20T07:53:04;12.10;;;3.80;;
71838;SDS011;59687;37.520;15.068;2022-11-20T07:55:32;10.83;;;4.33;;
71838;SDS011;59687;37.520;15.068;2022-11-20T07:57:59;13.68;;;4.97;;
71838;SDS011;59687;37.520;15.068;2022-11-20T08:00:27;12.05;;;3.50;;
71838;SDS011;59687;37.520;15.068;2022-11-20T08:02:55;17.25;;;3.47;;
71838;SDS011;59687;37.520;15.068;2022-11-20T08:05:23;0.57;;;0.25;;
71838;SDS011;59687;37.520;15.068;2022-11-20T08:07:50;1.03;;;0.70;;
71838;SDS011;59687;37.520;15.068;2022-11-20T08:10:19;0.82;;;0.30;;
71838;SDS011;59687;37.520;15.068;2022-11-20T08:12:49;0.40;;;0.10;;
71838;SDS011;59687;37.520;15.068;2022-11-20T08:15:35;1.08;;;0.57;;
71838;SDS011;59687;37.520;15.068;2022-11-20T08:18:08;0.22;;;0.08;;
71838;SDS011;59687;37.520;15.068;2022-11-20T08:20:55;0.40;;;0.20;;
71838;SDS011;59687;37.520;15.068;2022-11-20T08:23:22;0.68;;;0.28;;
71838;SDS011;59687;37.520;15.068;2022-11-20T08:25:52;0.80;;;0.40;;
71838;SDS011;59687;37.520;15.068;2022-11-20T08:28:20;0.38;;;0.10;;
71838;SDS011;59687;37.520;15.068;2022-11-20T08:30:48;0.60;;;0.40;;
71838;SDS011;59687;37.520;15.068;2022-11-20T08:33:16;0.27;;;0.10;;
71838;SDS011;59687;37.520;15.068;2022-11-20T08:35:43;1.38;;;0.73;;
71838;SDS011;59687;37.520;15.068;2022-11-20T08:38:11;1.20;;;1.05;;
71838;SDS011;59687;37.520;15.068;2022-11-20T08:40:38;0.47;;;0.20;;
71838;SDS011;59687;37.520;15.068;2022-11-20T08:43:05;0.52;;;0.30;;
71838;SDS011;59687;37.520;15.068;2022-11-20T08:45:32;3.33;;;0.60;;
71838;SDS011;59687;37.520;15.068;2022-11-20T08:48:00;1.10;;;0.75;;
71838;SDS011;59687;37.520;15.068;2022-11-20T08:50:31;1.08;;;0.85;;
71838;SDS011;59687;37.520;15.068;2022-11-20T08:53:03;1.77;;;1.00;;
71838;SDS011;59687;37.520;15.068;2022-11-20T08:55:32;0.55;;;0.20;;
71838;SDS011;59687;37.520;15.068;2022-11-20T08:58:03;0.40;;;0.20;;
71838;SDS011;59687;37.520;15.068;2022-11-20T09:00:32;0.63;;;0.45;;
71838;SDS011;59687;37.520;15.068;2022-11-20T09:03:01;1.17;;;0.70;;
71838;SDS011;59687;37.520;15.068;2022-11-20T09:05:28;0.75;;;0.30;;
71838;SDS011;59687;37.520;15.068;2022-11-20T09:07:58;0.32;;;0.10;;
71838;SDS011;59687;37.520;15.068;2022-11-20T09:10:26;2.50;;;1.13;;
71838;SDS011;59687;37.520;15.068;2022-11-20T09:12:53;1.10;;;0.47;;
71838;SDS011;59687;37.520;15.068;2022-11-20T09:15:24;1.00;;;0.63;;
71838;SDS011;59687;37.520;15.068;2022-11-20T09:17:57;1.20;;;0.85;;
71838;SDS011;59687;37.520;15.068;2022-11-20T09:20:26;1.95;;;1.50;;
71838;SDS011;59687;37.520;15.068;2022-11-20T09:22:55;0.50;;;0.20;;
71838;SDS011;59687;37.520;15.068;2022-11-20T09:25:24;1.50;;;0.70;;
71838;SDS011;59687;37.520;15.068;2022-11-20T09:27:58;0.30;;;0.10;;
71838;SDS011;59687;37.520;15.068;2022-11-20T09:30:26;1.35;;;0.52;;
71838;SDS011;59687;37.520;15.068;2022-11-20T09:32:54;0.68;;;0.30;;
71838;SDS011;59687;37.520;15.068;2022-11-20T09:35:21;1.33;;;0.50;;
71838;SDS011;59687;37.520;15.068;2022-11-20T09:37:49;0.73;;;0.30;;
71838;SDS011;59687;37.520;15.068;2022-11-20T09:40:20;0.40;;;0.20;;
71838;SDS011;59687;37.520;15.068;2022-11-20T09:42:55;0.40;;;0.10;;
71838;SDS011;59687;37.520;15.068;2022-11-20T09:51:16;2.08;;;0.55;;
71838;SDS011;59687;37.520;15.068;2022-11-20T09:54:10;0.55;;;0.22;;
71838;SDS011;59687;37.520;15.068;2022-11-20T09:56:48;0.60;;;0.30;;
71838;SDS011;59687;37.520;15.068;2022-11-20T10:02:16;0.97;;;0.87;;
71838;SDS011;59687;37.520;15.068;2022-11-20T10:04:51;0.30;;;0.10;;
71838;SDS011;59687;37.520;15.068;2022-11-20T10:10:19;0.95;;;0.30;;
71838;SDS011;59687;37.520;15.068;2022-11-20T10:13:00;6.35;;;1.17;;
71838;SDS011;59687;37.520;15.068;2022-11-20T10:16:02;5.30;;;1.90;;
71838;SDS011;59687;37.520;15.068;2022-11-20T10:21:09;8.60;;;1.70;;
71838;SDS011;59687;37.520;15.068;2022-11-20T10:29:15;6.10;;;1.33;;
71838;SDS011;59687;37.520;15.068;2022-11-20T10:31:47;5.78;;;1.85;;
71838;SDS011;59687;37.520;15.068;2022-11-20T10:34:22;4.57;;;1.15;;
71838;SDS011;59687;37.520;15.068;2022-11-20T10:36:55;4.32;;;1.40;;
71838;SDS011;59687;37.520;15.068;2022-11-20T10:39:28;5.18;;;1.10;;
71838;SDS011;59687;37.520;15.068;2022-11-20T10:41:57;4.63;;;1.23;;
71838;SDS011;59687;37.520;15.068;2022-11-20T10:44:28;5.13;;;1.27;;
71838;SDS011;59687;37.520;15.068;2022-11-20T10:47:17;6.20;;;1.77;;
71838;SDS011;59687;37.520;15.068;2022-11-20T10:49:48;6.57;;;1.33;;
71838;SDS011;59687;37.520;15.068;2022-11-20T10:57:54;4.03;;;0.80;;
71838;SDS011;59687;37.520;15.068;2022-11-20T11:00:40;3.17;;;0.50;;
71838;SDS011;59687;37.520;15.068;2022-11-20T11:03:15;2.97;;;0.70;;
71838;SDS011;59687;37.520;15.068;2022-11-20T11:06:09;3.72;;;0.57;;
71838;SDS011;59687;37.520;15.068;2022-11-20T11:08:49;2.60;;;0.47;;
71838;SDS011;59687;37.520;15.068;2022-11-20T11:14:06;2.33;;;0.40;;
71838;SDS011;59687;37.520;15.068;2022-11-20T11:16:50;3.17;;;0.50;;
71838;SDS011;59687;37.520;15.068;2022-11-20T11:19:17;3.13;;;0.55;;
71838;SDS011;59687;37.520;15.068;2022-11-20T11:21:55;3.80;;;0.70;;
71838;SDS011;59687;37.520;15.068;2022-11-20T11:24:27;3.53;;;0.90;;
71838;SDS011;59687;37.520;15.068;2022-11-20T11:27:11;4.20;;;0.90;;
71838;SDS011;59687;37.520;15.068;2022-11-20T11:29:45;4.65;;;1.02;;
71838;SDS011;59687;37.520;15.068;2022-11-20T11:32:18;4.68;;;1.10;;
71838;SDS011;59687;37.520;15.068;2022-11-20T11:35:00;2.93;;;0.73;;
71838;SDS011;59687;37.520;15.068;2022-11-20T11:37:36;2.83;;;0.60;;
71838;SDS011;59687;37.520;15.068;2022-11-20T11:40:05;3.60;;;1.67;;
71838;SDS011;59687;37.520;15.068;2022-11-20T11:42:57;2.90;;;0.70;;
71838;SDS011;59687;37.520;15.068;2022-11-20T11:45:29;2.08;;;0.40;;
71838;SDS011;59687;37.520;15.068;2022-11-20T11:47:57;3.00;;;0.40;;
71838;SDS011;59687;37.520;15.068;2022-11-20T11:50:28;2.45;;;0.60;;
71838;SDS011;59687;37.520;15.068;2022-11-20T11:53:03;3.63;;;0.80;;
71838;SDS011;59687;37.520;15.068;2022-11-20T11:55:48;2.83;;;0.70;;
71838;SDS011;59687;37.520;15.068;2022-11-20T12:01:20;2.80;;;0.70;;
71838;SDS011;59687;37.520;15.068;2022-11-20T12:05:14;4.28;;;0.80;;
71838;SDS011;59687;37.520;15.068;2022-11-20T12:07:54;3.65;;;1.10;;
71838;SDS011;59687;37.520;15.068;2022-11-20T12:10:55;3.97;;;1.30;;
71838;SDS011;59687;37.520;15.068;2022-11-20T12:16:13;4.10;;;1.10;;
71838;SDS011;59687;37.520;15.068;2022-11-20T12:18:45;4.32;;;1.23;;
71838;SDS011;59687;37.520;15.068;2022-11-20T12:26:58;3.88;;;1.27;;
71838;SDS011;59687;37.520;15.068;2022-11-20T12:41:12;3.50;;;0.75;;
71838;SDS011;59687;37.520;15.068;2022-11-20T12:51:05;4.22;;;0.60;;
71838;SDS011;59687;37.520;15.068;2022-11-20T12:59:33;4.17;;;1.20;;
71838;SDS011;59687;37.520;15.068;2022-11-20T13:02:25;3.28;;;0.90;;
71838;SDS011;59687;37.520;15.068;2022-11-20T13:08:07;5.63;;;2.10;;
71838;SDS011;59687;37.520;15.068;2022-11-20T13:10:46;3.10;;;0.80;;
71838;SDS011;59687;37.520;15.068;2022-11-20T13:13:36;3.07;;;0.40;;
71838;SDS011;59687;37.520;15.068;2022-11-20T13:19:25;6.00;;;2.53;;
71838;SDS011;59687;37.520;15.068;2022-11-20T13:21:52;3.65;;;1.08;;
71838;SDS011;59687;37.520;15.068;2022-11-20T13:24:21;4.60;;;1.48;;
71838;SDS011;59687;37.520;15.068;2022-11-20T13:29:36;2.63;;;0.77;;
71838;SDS011;59687;37.520;15.068;2022-11-20T13:34:51;3.45;;;0.90;;
71838;SDS011;59687;37.520;15.068;2022-11-20T13:37:25;4.10;;;0.80;;
71838;SDS011;59687;37.520;15.068;2022-11-20T13:40:05;3.03;;;0.63;;
71838;SDS011;59687;37.520;15.068;2022-11-20T13:46:05;3.00;;;0.70;;
71838;SDS011;59687;37.520;15.068;2022-11-20T13:48:44;3.58;;;0.70;;
71838;SDS011;59687;37.520;15.068;2022-11-20T13:59:20;1.90;;;0.40;;
71838;SDS011;59687;37.520;15.068;2022-11-20T14:01:57;2.50;;;0.40;;
71838;SDS011;59687;37.520;15.068;2022-11-20T14:04:33;4.28;;;0.52;;
71838;SDS011;59687;37.520;15.068;2022-11-20T14:07:06;2.27;;;0.60;;
71838;SDS011;59687;37.520;15.068;2022-11-20T14:09:38;2.30;;;0.50;;
71838;SDS011;59687;37.520;15.068;2022-11-20T14:12:13;2.45;;;0.50;;
71838;SDS011;59687;37.520;15.068;2022-11-20T14:14:50;2.72;;;0.47;;
71838;SDS011;59687;37.520;15.068;2022-11-20T14:17:24;5.40;;;0.73;;
71838;SDS011;59687;37.520;15.068;2022-11-20T14:20:04;2.30;;;0.50;;
71838;SDS011;59687;37.520;15.068;2022-11-20T14:22:37;3.85;;;0.60;;
71838;SDS011;59687;37.520;15.068;2022-11-20T14:27:47;4.53;;;0.70;;
71838;SDS011;59687;37.520;15.068;2022-11-20T14:30:26;2.83;;;0.70;;
71838;SDS011;59687;37.520;15.068;2022-11-20T14:33:03;3.90;;;0.50;;
71838;SDS011;59687;37.520;15.068;2022-11-20T14:35:44;3.03;;;0.57;;
71838;SDS011;59687;37.520;15.068;2022-11-20T14:38:17;4.88;;;0.90;;
71838;SDS011;59687;37.520;15.068;2022-11-20T14:40:51;3.28;;;0.50;;
71838;SDS011;59687;37.520;15.068;2022-11-20T14:43:26;2.70;;;0.70;;
71838;SDS011;59687;37.520;15.068;2022-11-20T14:45:57;3.30;;;0.60;;
71838;SDS011;59687;37.520;15.068;2022-11-20T14:48:28;2.28;;;0.50;;
71838;SDS011;59687;37.520;15.068;2022-11-20T14:51:00;3.78;;;0.65;;
71838;SDS011;59687;37.520;15.068;2022-11-20T14:53:28;2.80;;;1.23;;
71838;SDS011;59687;37.520;15.068;2022-11-20T14:55:56;4.28;;;0.70;;
71838;SDS011;59687;37.520;15.068;2022-11-20T14:58:28;4.37;;;0.63;;
71838;SDS011;59687;37.520;15.068;2022-11-20T15:03:46;2.83;;;0.57;;
71838;SDS011;59687;37.520;15.068;2022-11-20T15:06:26;2.80;;;0.60;;
71838;SDS011;59687;37.520;15.068;2022-11-20T15:08:57;2.75;;;0.40;;
71838;SDS011;59687;37.520;15.068;2022-11-20T15:11:36;1.60;;;0.30;;
71838;SDS011;59687;37.520;15.068;2022-11-20T15:14:04;2.10;;;0.40;;
71838;SDS011;59687;37.520;15.068;2022-11-20T15:16:40;3.50;;;0.50;;
71838;SDS011;59687;37.520;15.068;2022-11-20T15:19:19;2.03;;;0.50;;
71838;SDS011;59687;37.520;15.068;2022-11-20T15:21:49;4.03;;;0.63;;
71838;SDS011;59687;37.520;15.068;2022-11-20T15:24:20;2.80;;;0.50;;
71838;SDS011;59687;37.520;15.068;2022-11-20T15:26:49;5.03;;;0.77;;
71838;SDS011;59687;37.520;15.068;2022-11-20T15:29:18;2.13;;;0.40;;
71838;SDS011;59687;37.520;15.068;2022-11-20T15:31:47;2.67;;;0.52;;
71838;SDS011;59687;37.520;15.068;2022-11-20T15:34:15;2.15;;;0.47;;
71838;SDS011;59687;37.520;15.068;2022-11-20T15:36:42;2.33;;;0.70;;
71838;SDS011;59687;37.520;15.068;2022-11-20T15:39:11;2.42;;;0.47;;
71838;SDS011;59687;37.520;15.068;2022-11-20T15:41:42;2.55;;;0.50;;
71838;SDS011;59687;37.520;15.068;2022-11-20T15:44:09;3.20;;;0.88;;
71838;SDS011;59687;37.520;15.068;2022-11-20T15:46:37;4.88;;;0.60;;
71838;SDS011;59687;37.520;15.068;2022-11-20T15:49:11;2.57;;;0.50;;
71838;SDS011;59687;37.520;15.068;2022-11-20T15:51:43;1.77;;;0.40;;
71838;SDS011;59687;37.520;15.068;2022-11-20T15:54:15;2.17;;;0.52;;
71838;SDS011;59687;37.520;15.068;2022-11-20T15:56:48;3.88;;;0.60;;
71838;SDS011;59687;37.520;15.068;2022-11-20T15:59:18;2.08;;;0.40;;
71838;SDS011;59687;37.520;15.068;2022-11-20T16:01:47;4.40;;;0.60;;
71838;SDS011;59687;37.520;15.068;2022-11-20T16:04:17;2.47;;;0.60;;
71838;SDS011;59687;37.520;15.068;2022-11-20T16:06:44;2.78;;;0.63;;
71838;SDS011;59687;37.520;15.068;2022-11-20T16:09:12;2.80;;;0.70;;
71838;SDS011;59687;37.520;15.068;2022-11-20T16:11:38;4.68;;;0.80;;
71838;SDS011;59687;37.520;15.068;2022-11-20T16:14:11;5.30;;;0.70;;
71838;SDS011;59687;37.520;15.068;2022-11-20T16:16:59;4.13;;;0.50;;
71838;SDS011;59687;37.520;15.068;2022-11-20T16:19:26;2.55;;;0.50;;
71838;SDS011;59687;37.520;15.068;2022-11-20T16:21:53;4.28;;;0.80;;
71838;SDS011;59687;37.520;15.068;2022-11-20T16:24:22;2.67;;;0.70;;
71838;SDS011;59687;37.520;15.068;2022-11-20T16:26:56;3.23;;;0.80;;
71838;SDS011;59687;37.520;15.068;2022-11-20T16:29:24;3.50;;;1.00;;
71838;SDS011;59687;37.520;15.068;2022-11-20T16:31:51;6.25;;;1.55;;
71838;SDS011;59687;37.520;15.068;2022-11-20T16:34:23;3.58;;;1.20;;
71838;SDS011;59687;37.520;15.068;2022-11-20T16:36:52;2.90;;;0.50;;